Time;durP1;ratioP1;P1;durP2;ratioP2;P2;SDS_P1;SDS_P2;PMS_P1;PMS_P2;Temp;Humidity;BMP_temperature;BMP_pressure;BME280_temperature;BME280_humidity;BME280_pressure;Samples;Min_cycle;Max_cycle;Signal;HPM_P1;HPM_P2
2021/11/23 00:01:46;;;;;;;3.00;1.67;;;-0.10;99.90;;;;;;4977345;28;20136;-78
2021/11/23 00:04:12;;;;;;;2.63;1.50;;;-0.20;99.90;;;;;;4994558;28;20129;-79
2021/11/23 00:06:38;;;;;;;3.28;1.77;;;-0.30;99.90;;;;;;4976201;28;20034;-78
2021/11/23 00:09:04;;;;;;;3.95;1.83;;;-0.20;99.90;;;;;;4988123;28;20117;-78
2021/11/23 00:11:30;;;;;;;2.53;1.60;;;0.00;99.90;;;;;;4974832;28;20062;-78
2021/11/23 00:13:56;;;;;;;3.15;2.08;;;0.00;99.90;;;;;;4974697;28;20034;-78
2021/11/23 00:16:22;;;;;;;2.65;1.52;;;-0.10;99.90;;;;;;4974975;28;20105;-79
2021/11/23 00:18:48;;;;;;;3.03;1.80;;;-0.20;99.90;;;;;;4989548;28;20040;-79
2021/11/23 00:21:14;;;;;;;3.30;2.45;;;-0.50;99.90;;;;;;4993919;28;20121;-79
2021/11/23 00:23:41;;;;;;;2.17;1.52;;;-0.60;99.90;;;;;;4993995;28;20046;-79
2021/11/23 00:26:06;;;;;;;3.88;1.90;;;-0.50;99.90;;;;;;4994172;28;20030;-79
2021/11/23 00:28:32;;;;;;;2.47;1.50;;;-0.70;99.90;;;;;;4989090;28;20035;-79
2021/11/23 00:30:59;;;;;;;2.75;1.70;;;-0.70;99.90;;;;;;4974688;28;20031;-78
2021/11/23 00:33:30;;;;;;;4.00;1.95;;;-0.80;99.90;;;;;;4974728;28;20031;-80
2021/11/23 00:35:56;;;;;;;3.25;1.90;;;-0.80;99.90;;;;;;4974391;28;20105;-78
2021/11/23 00:38:21;;;;;;;4.03;2.40;;;-0.80;99.90;;;;;;4974127;28;20089;-81
2021/11/23 00:40:47;;;;;;;2.67;1.80;;;-0.90;99.90;;;;;;4993728;28;20046;-79
2021/11/23 00:43:13;;;;;;;5.30;2.42;;;-1.00;99.90;;;;;;4993834;28;20073;-79
2021/11/23 00:45:41;;;;;;;9.27;4.65;;;-1.10;99.90;;;;;;4993524;28;20495;-78
2021/11/23 00:48:07;;;;;;;4.20;2.65;;;-1.10;99.90;;;;;;4978844;28;20027;-78
2021/11/23 00:50:33;;;;;;;5.50;3.05;;;-0.80;99.90;;;;;;4973128;28;20034;-78
2021/11/23 00:53:00;;;;;;;4.38;2.63;;;-1.00;99.90;;;;;;4956785;28;20031;-79
2021/11/23 00:55:26;;;;;;;5.47;2.55;;;-1.00;99.90;;;;;;4973743;28;20022;-78
2021/11/23 00:57:51;;;;;;;4.82;2.67;;;-1.00;99.90;;;;;;4985455;28;20018;-79
2021/11/23 01:00:17;;;;;;;5.78;2.90;;;-1.00;99.90;;;;;;4981785;28;20112;-78
2021/11/23 01:02:43;;;;;;;3.63;2.25;;;-1.00;99.90;;;;;;4993817;28;20130;-78
2021/11/23 01:05:09;;;;;;;5.28;2.65;;;-1.00;99.90;;;;;;4993342;28;20101;-78
2021/11/23 01:07:35;;;;;;;4.50;2.70;;;-1.00;99.90;;;;;;4991668;28;20369;-78
2021/11/23 01:10:03;;;;;;;4.55;3.15;;;-1.10;99.90;;;;;;4973831;28;20081;-78
2021/11/23 01:12:28;;;;;;;4.72;2.80;;;-1.00;99.90;;;;;;4992364;28;20443;-78
2021/11/23 01:14:54;;;;;;;4.30;2.72;;;-1.00;99.90;;;;;;4992958;28;20026;-78
2021/11/23 01:17:20;;;;;;;4.75;3.15;;;-1.20;99.90;;;;;;4992734;28;20497;-79
2021/11/23 01:19:46;;;;;;;5.18;3.38;;;-1.00;99.90;;;;;;4991554;28;20026;-78
2021/11/23 01:22:12;;;;;;;7.15;3.17;;;-1.30;99.90;;;;;;4993443;28;20519;-78
2021/11/23 01:24:37;;;;;;;5.25;3.22;;;-1.30;99.90;;;;;;4993030;28;20026;-78
2021/11/23 01:27:03;;;;;;;7.88;3.75;;;-1.30;99.90;;;;;;4993253;28;20038;-78
2021/11/23 01:29:29;;;;;;;4.53;2.67;;;-1.40;99.90;;;;;;4974292;28;20066;-78
2021/11/23 01:31:54;;;;;;;4.22;2.80;;;-1.20;99.90;;;;;;4993282;28;20022;-79
2021/11/23 01:34:20;;;;;;;5.00;2.70;;;-1.10;99.90;;;;;;4997712;28;20037;-80
2021/11/23 01:36:52;;;;;;;4.07;2.38;;;-1.00;99.90;;;;;;5007620;28;20034;-78
2021/11/23 01:39:18;;;;;;;5.33;2.83;;;-1.10;99.90;;;;;;4998773;28;20031;-79
2021/11/23 01:41:43;;;;;;;9.35;2.88;;;-1.30;99.90;;;;;;4973228;28;20305;-78
2021/11/23 01:44:09;;;;;;;4.25;2.40;;;-1.30;99.90;;;;;;4987669;28;20031;-78
2021/11/23 01:46:36;;;;;;;4.10;2.50;;;-1.40;99.90;;;;;;4989254;28;20054;-79
2021/11/23 01:49:03;;;;;;;4.13;2.53;;;-1.40;99.90;;;;;;4997514;28;20019;-79
2021/11/23 01:51:28;;;;;;;3.65;2.42;;;-1.40;99.90;;;;;;4983317;28;20031;-77
2021/11/23 01:53:54;;;;;;;5.18;2.97;;;-1.50;99.90;;;;;;4973338;28;20031;-77
2021/11/23 01:56:20;;;;;;;3.83;2.38;;;-1.60;99.90;;;;;;4973331;28;20027;-77
2021/11/23 01:58:46;;;;;;;5.10;2.53;;;-1.80;99.90;;;;;;4984644;28;20042;-77
2021/11/23 02:01:12;;;;;;;3.58;2.30;;;-1.80;99.90;;;;;;4973305;28;20034;-76
2021/11/23 02:03:39;;;;;;;6.13;3.17;;;-1.80;99.90;;;;;;4982270;28;20027;-77
2021/11/23 02:06:07;;;;;;;6.82;2.58;;;-1.60;99.90;;;;;;4974849;28;20051;-77
2021/11/23 02:08:33;;;;;;;4.70;2.58;;;-1.70;99.90;;;;;;4985263;28;20536;-78
2021/11/23 02:10:58;;;;;;;8.90;2.85;;;-1.50;99.90;;;;;;4988512;28;20122;-78
2021/11/23 02:13:28;;;;;;;6.55;3.28;;;-1.50;99.90;;;;;;4992328;28;20023;-78
2021/11/23 02:15:58;;;;;;;6.05;2.72;;;-1.40;99.90;;;;;;4992369;28;20022;-78
2021/11/23 02:18:26;;;;;;;4.25;2.58;;;-1.40;99.90;;;;;;4990424;28;20050;-79
2021/11/23 02:20:53;;;;;;;7.35;3.10;;;-1.40;99.90;;;;;;4991721;28;20026;-79
2021/11/23 02:23:19;;;;;;;3.58;2.10;;;-1.60;99.90;;;;;;4992512;28;20077;-79
2021/11/23 02:25:46;;;;;;;3.75;2.47;;;-1.60;99.90;;;;;;4992618;28;20085;-77
2021/11/23 02:28:12;;;;;;;4.30;2.80;;;-1.80;99.90;;;;;;4991416;28;20031;-78
2021/11/23 02:30:48;;;;;;;4.47;2.40;;;-1.80;99.90;;;;;;4992247;28;20471;-79
2021/11/23 02:33:20;;;;;;;4.50;2.85;;;-2.10;99.90;;;;;;4991214;28;20498;-79
2021/11/23 02:35:47;;;;;;;3.40;2.22;;;-1.90;99.90;;;;;;4994380;28;20394;-79
2021/11/23 02:38:14;;;;;;;4.00;2.83;;;-1.80;99.90;;;;;;4995288;28;20097;-80
2021/11/23 02:40:40;;;;;;;4.60;2.50;;;-1.70;99.90;;;;;;4995334;28;20030;-78
2021/11/23 02:43:05;;;;;;;4.90;2.80;;;-1.90;99.90;;;;;;4996666;28;20114;-79
2021/11/23 02:45:31;;;;;;;6.32;2.60;;;-2.00;99.90;;;;;;4979053;28;20085;-80
2021/11/23 02:47:59;;;;;;;4.82;3.20;;;-1.90;99.90;;;;;;4965902;28;20039;-80
2021/11/23 02:50:27;;;;;;;6.63;3.60;;;-1.70;99.90;;;;;;4976235;28;20057;-79
2021/11/23 02:52:53;;;;;;;7.53;3.25;;;-1.40;99.90;;;;;;4991518;28;20101;-78
2021/11/23 02:55:21;;;;;;;6.07;3.03;;;-1.40;99.90;;;;;;4996868;28;20034;-80
2021/11/23 02:57:47;;;;;;;4.50;3.38;;;-1.50;99.90;;;;;;4995681;28;20073;-80
2021/11/23 03:00:17;;;;;;;9.70;3.75;;;-1.50;99.90;;;;;;4981786;28;20100;-80
2021/11/23 03:02:44;;;;;;;10.07;3.50;;;-1.60;99.90;;;;;;4977091;28;20086;-78
2021/11/23 03:05:10;;;;;;;5.05;2.67;;;-1.70;99.90;;;;;;4977034;28;20038;-79
2021/11/23 03:07:36;;;;;;;4.50;3.25;;;-1.80;99.90;;;;;;4968785;28;20503;-80
2021/11/23 03:10:05;;;;;;;4.22;3.20;;;-1.90;99.90;;;;;;4980226;28;20046;-80
2021/11/23 03:12:31;;;;;;;4.07;2.88;;;-1.50;99.90;;;;;;4995592;28;20085;-79
2021/11/23 03:14:56;;;;;;;5.03;3.17;;;-1.80;99.90;;;;;;4995769;28;20023;-80
2021/11/23 03:17:22;;;;;;;6.78;3.40;;;-1.90;99.90;;;;;;4989234;28;20045;-80
2021/11/23 03:19:50;;;;;;;5.18;3.28;;;-1.70;99.90;;;;;;4981871;28;20404;-80
2021/11/23 03:22:16;;;;;;;5.70;3.67;;;-1.70;99.90;;;;;;4977343;28;20030;-79
2021/11/23 03:24:42;;;;;;;6.15;3.53;;;-1.70;99.90;;;;;;4977010;28;20062;-79
2021/11/23 03:27:09;;;;;;;5.68;3.75;;;-1.90;99.90;;;;;;4964637;28;20030;-79
2021/11/23 03:29:37;;;;;;;6.38;3.78;;;-2.00;99.90;;;;;;4984097;28;20065;-79
2021/11/23 03:32:04;;;;;;;6.53;4.10;;;-1.90;99.90;;;;;;4976310;28;20078;-79
2021/11/23 03:34:36;;;;;;;8.95;5.70;;;-1.90;99.90;;;;;;4976159;28;20388;-79
2021/11/23 03:37:04;;;;;;;11.10;6.78;;;-1.90;99.90;;;;;;4980806;28;20034;-79
2021/11/23 03:39:30;;;;;;;7.43;4.18;;;-1.90;99.90;;;;;;4993583;28;20027;-79
2021/11/23 03:41:55;;;;;;;7.80;3.95;;;-1.90;99.90;;;;;;5003400;28;20081;-80
2021/11/23 03:44:21;;;;;;;5.60;3.65;;;-1.70;99.90;;;;;;4997552;28;20884;-79
2021/11/23 03:46:47;;;;;;;7.95;4.22;;;-0.80;99.90;;;;;;4995768;28;20031;-79
2021/11/23 03:49:12;;;;;;;7.20;3.53;;;-1.60;99.90;;;;;;4989427;28;20042;-78
2021/11/23 03:51:38;;;;;;;4.32;2.78;;;-1.60;99.90;;;;;;4995776;28;20034;-79
2021/11/23 03:54:03;;;;;;;6.05;2.90;;;-1.80;99.90;;;;;;4997319;28;20037;-80
2021/11/23 03:56:29;;;;;;;5.00;2.80;;;-1.90;99.90;;;;;;4994658;28;20447;-79
2021/11/23 03:58:55;;;;;;;3.95;2.90;;;-2.10;99.90;;;;;;4990268;28;20023;-78
2021/11/23 04:01:20;;;;;;;5.68;2.80;;;-2.10;99.90;;;;;;4975720;28;20039;-79
2021/11/23 04:03:46;;;;;;;5.38;2.95;;;-2.10;99.90;;;;;;4958180;28;20070;-80
2021/11/23 04:06:11;;;;;;;5.38;2.75;;;-2.10;99.90;;;;;;4958051;28;20118;-79
2021/11/23 04:08:37;;;;;;;5.53;2.70;;;-2.00;99.90;;;;;;4993459;28;20070;-79
2021/11/23 04:11:03;;;;;;;4.75;2.65;;;-2.00;99.90;;;;;;4979780;28;20038;-79
2021/11/23 04:13:29;;;;;;;3.97;2.63;;;;;;;;;;4995422;28;20614;-79
2021/11/23 04:15:54;;;;;;;5.45;2.92;;;-2.20;99.90;;;;;;5006598;28;20061;-80
2021/11/23 04:18:20;;;;;;;4.88;3.03;;;-2.40;99.90;;;;;;4992094;28;20066;-79
2021/11/23 04:20:46;;;;;;;4.85;2.60;;;-2.50;99.90;;;;;;4998266;28;20078;-79
2021/11/23 04:23:11;;;;;;;5.18;3.05;;;-2.70;99.90;;;;;;5036613;22;20050;-76
2021/11/23 04:25:37;;;;;;;5.95;3.33;;;-2.70;99.90;;;;;;4998157;28;20077;-77
2021/11/23 04:28:03;;;;;;;6.25;3.05;;;-2.70;99.90;;;;;;4998884;28;20104;-77
2021/11/23 04:30:29;;;;;;;10.73;6.47;;;-2.80;99.90;;;;;;5003698;28;20027;-77
2021/11/23 04:32:54;;;;;;;15.45;7.97;;;-2.70;99.90;;;;;;4978857;28;20113;-77
2021/11/23 04:35:20;;;;;;;11.45;4.97;;;-2.60;99.90;;;;;;4996080;28;20033;-75
2021/11/23 04:37:46;;;;;;;6.97;4.53;;;-2.70;99.90;;;;;;4997075;28;20034;-77
2021/11/23 04:40:14;;;;;;;7.18;4.03;;;-2.80;99.90;;;;;;5015587;28;20038;-77
2021/11/23 04:42:40;;;;;;;7.63;4.38;;;-2.80;99.90;;;;;;4996136;28;20030;-78
2021/11/23 04:45:08;;;;;;;6.20;4.10;;;-2.80;99.90;;;;;;4995874;28;20027;-78
2021/11/23 04:47:34;;;;;;;8.27;4.88;;;-2.80;99.90;;;;;;4978681;28;20038;-78
2021/11/23 04:50:00;;;;;;;7.53;4.30;;;-2.00;99.90;;;;;;5011051;28;20033;-78
2021/11/23 04:52:26;;;;;;;7.80;4.38;;;-2.90;99.90;;;;;;4996842;28;20018;-76
2021/11/23 04:54:51;;;;;;;6.32;4.10;;;-2.90;99.90;;;;;;4992683;28;20022;-77
2021/11/23 04:57:17;;;;;;;6.80;4.22;;;-2.90;99.90;;;;;;5009637;28;20494;-78
2021/11/23 04:59:43;;;;;;;7.03;4.25;;;-2.90;99.90;;;;;;5024922;28;20034;-78
2021/11/23 05:02:09;;;;;;;7.25;4.47;;;-2.90;99.90;;;;;;5013136;28;20474;-77
2021/11/23 05:04:35;;;;;;;9.25;4.38;;;-2.80;99.90;;;;;;4995218;28;20080;-75
2021/11/23 05:07:01;;;;;;;8.75;4.97;;;-2.80;99.90;;;;;;4994530;28;20033;-76
2021/11/23 05:09:28;;;;;;;5.93;4.00;;;-1.90;99.90;;;;;;4991620;28;20506;-76
2021/11/23 05:11:53;;;;;;;8.57;5.03;;;-2.90;99.90;;;;;;5016093;28;20030;-74
2021/11/23 05:14:19;;;;;;;6.65;4.55;;;-2.70;99.90;;;;;;4997633;28;20455;-79
2021/11/23 05:16:45;;;;;;;9.13;4.78;;;-2.70;99.90;;;;;;4964139;28;20125;-78
2021/11/23 05:19:11;;;;;;;10.20;5.57;;;-2.50;99.90;;;;;;5008954;28;20033;-79
2021/11/23 05:21:36;;;;;;;7.53;4.82;;;-2.80;99.90;;;;;;4999683;28;20120;-78
2021/11/23 05:24:02;;;;;;;7.88;4.93;;;-2.90;99.90;;;;;;4998820;28;20034;-78
2021/11/23 05:26:28;;;;;;;7.97;4.72;;;-2.90;99.90;;;;;;5016900;28;20378;-78
2021/11/23 05:28:54;;;;;;;9.43;4.65;;;-2.90;99.90;;;;;;5016598;28;20037;-76
2021/11/23 05:31:20;;;;;;;12.57;5.28;;;-3.00;99.90;;;;;;5018092;28;20033;-78
2021/11/23 05:33:46;;;;;;;8.68;4.93;;;-2.90;99.90;;;;;;4996272;28;20032;-78
2021/11/23 05:36:12;;;;;;;9.77;5.07;;;-2.70;99.90;;;;;;4977742;28;20655;-76
2021/11/23 05:38:37;;;;;;;10.00;5.20;;;-2.70;99.90;;;;;;4979743;28;20107;-74
2021/11/23 05:41:03;;;;;;;7.90;4.50;;;-2.70;99.90;;;;;;4971890;28;20026;-75
2021/11/23 05:43:29;;;;;;;7.68;4.82;;;-2.80;99.90;;;;;;4974740;28;20030;-76
2021/11/23 05:45:55;;;;;;;9.35;5.32;;;-2.80;99.90;;;;;;4992087;28;20022;-76
2021/11/23 05:48:20;;;;;;;8.98;5.85;;;-2.90;99.90;;;;;;4992488;28;20540;-77
2021/11/23 05:50:46;;;;;;;8.55;5.30;;;-1.70;99.90;;;;;;4957733;28;20081;-76
2021/11/23 05:53:11;;;;;;;9.15;5.50;;;-2.90;99.90;;;;;;4974734;28;20038;-77
2021/11/23 05:55:37;;;;;;;8.70;5.70;;;-2.70;99.90;;;;;;4991859;28;20042;-76
2021/11/23 05:58:03;;;;;;;8.73;5.03;;;-2.90;99.90;;;;;;4978400;28;20478;-77
2021/11/23 06:00:29;;;;;;;9.55;5.82;;;-2.80;99.90;;;;;;5010877;28;20034;-76
2021/11/23 06:02:55;;;;;;;7.68;4.80;;;-2.80;99.90;;;;;;5011686;28;20029;-77
2021/11/23 06:05:21;;;;;;;9.27;6.32;;;-2.80;99.90;;;;;;4993677;28;20025;-76
2021/11/23 06:07:46;;;;;;;10.10;6.70;;;-2.80;99.90;;;;;;4979751;28;20026;-76
2021/11/23 06:10:12;;;;;;;11.10;6.82;;;-2.60;99.90;;;;;;4972909;28;20408;-75
2021/11/23 06:12:38;;;;;;;8.27;6.13;;;-2.60;99.90;;;;;;4959175;28;20506;-77
2021/11/23 06:15:07;;;;;;;10.85;6.60;;;-2.60;99.90;;;;;;4991793;28;20049;-76
2021/11/23 06:17:33;;;;;;;9.35;5.82;;;-2.70;99.90;;;;;;4993172;28;20497;-76
2021/11/23 06:19:59;;;;;;;12.85;6.85;;;-2.70;99.90;;;;;;4977113;28;20105;-77
2021/11/23 06:22:25;;;;;;;14.20;8.27;;;-2.80;99.90;;;;;;5010804;28;20026;-76
2021/11/23 06:24:51;;;;;;;14.52;7.30;;;-2.70;99.90;;;;;;5011147;28;20084;-76
2021/11/23 06:27:17;;;;;;;10.23;7.07;;;-2.50;99.90;;;;;;4994632;28;20037;-78
2021/11/23 06:29:42;;;;;;;12.52;7.85;;;-2.30;99.90;;;;;;5011610;28;20128;-78
2021/11/23 06:32:08;;;;;;;12.27;8.40;;;-2.20;99.90;;;;;;5012215;28;20033;-77
2021/11/23 06:34:34;;;;;;;12.65;8.07;;;-2.30;99.90;;;;;;4998797;28;20041;-78
2021/11/23 06:37:00;;;;;;;12.30;8.32;;;-2.30;99.90;;;;;;5016838;28;20022;-77
2021/11/23 06:39:26;;;;;;;12.18;7.82;;;-2.40;99.90;;;;;;5014029;28;20084;-77
2021/11/23 06:41:52;;;;;;;13.48;8.52;;;-2.30;99.90;;;;;;5002124;28;20030;-77
2021/11/23 06:44:18;;;;;;;15.40;9.00;;;-2.30;99.90;;;;;;4996360;28;20069;-76
2021/11/23 06:46:44;;;;;;;15.35;8.95;;;-2.10;99.90;;;;;;4980054;28;20560;-77
2021/11/23 06:49:10;;;;;;;13.80;8.65;;;-2.10;99.90;;;;;;4990634;28;20034;-77
2021/11/23 06:51:35;;;;;;;15.18;8.90;;;-2.20;99.90;;;;;;5002866;28;20026;-77
2021/11/23 06:54:01;;;;;;;12.30;7.68;;;-2.30;99.90;;;;;;4977243;28;20038;-77
2021/11/23 06:56:27;;;;;;;16.05;9.27;;;-2.40;99.90;;;;;;4997515;28;20030;-77
2021/11/23 06:58:52;;;;;;;14.50;9.00;;;-2.30;99.90;;;;;;4999010;28;20041;-77
2021/11/23 07:01:18;;;;;;;14.38;9.13;;;-2.20;99.90;;;;;;5020072;28;20395;-81
2021/11/23 07:03:44;;;;;;;19.15;8.50;;;-2.10;99.90;;;;;;4985587;28;20030;-77
2021/11/23 07:06:10;;;;;;;15.57;9.38;;;-1.90;99.90;;;;;;4996221;28;20037;-77
2021/11/23 07:08:36;;;;;;;12.73;8.18;;;-2.20;99.90;;;;;;5013873;28;20036;-77
2021/11/23 07:11:02;;;;;;;13.90;8.38;;;-2.20;99.90;;;;;;4997514;28;20751;-77
2021/11/23 07:13:28;;;;;;;13.32;8.25;;;-2.30;99.90;;;;;;4986605;28;20133;-77
2021/11/23 07:15:54;;;;;;;15.25;7.80;;;-2.30;99.90;;;;;;5015245;28;20026;-78
2021/11/23 07:18:20;;;;;;;12.35;6.90;;;-2.40;99.90;;;;;;4996634;28;20478;-77
2021/11/23 07:20:46;;;;;;;11.50;7.35;;;-2.40;99.90;;;;;;5016536;28;20080;-76
2021/11/23 07:23:12;;;;;;;12.40;7.55;;;-2.30;99.90;;;;;;5009086;28;20031;-76
2021/11/23 07:25:38;;;;;;;12.68;8.10;;;-2.40;99.90;;;;;;4988610;28;20034;-77
2021/11/23 07:28:04;;;;;;;12.65;8.40;;;-2.30;99.90;;;;;;5001180;28;20031;-77
2021/11/23 07:30:30;;;;;;;14.68;8.75;;;-0.20;99.90;;;;;;4998637;28;20050;-77
2021/11/23 07:32:56;;;;;;;16.08;9.20;;;-2.20;99.90;;;;;;4998200;28;20025;-78
2021/11/23 07:35:22;;;;;;;15.10;9.48;;;-1.90;99.90;;;;;;4996626;28;20025;-77
2021/11/23 07:37:48;;;;;;;18.30;10.30;;;-1.90;99.90;;;;;;4995812;28;20027;-77
2021/11/23 07:40:15;;;;;;;16.67;9.50;;;-1.80;99.90;;;;;;5015279;28;20032;-77
2021/11/23 07:42:41;;;;;;;15.88;9.05;;;-1.70;99.90;;;;;;5012972;28;20017;-77
2021/11/23 07:45:07;;;;;;;15.82;9.35;;;-1.50;99.90;;;;;;5012354;28;20056;-77
2021/11/23 07:47:33;;;;;;;15.82;9.52;;;-1.50;99.90;;;;;;5002819;28;20038;-77
2021/11/23 07:49:59;;;;;;;18.00;10.15;;;-1.30;99.90;;;;;;5004820;28;20118;-77
2021/11/23 07:52:25;;;;;;;16.98;10.68;;;-1.10;99.90;;;;;;4976384;28;20110;-77
2021/11/23 07:54:50;;;;;;;15.02;9.15;;;-1.00;99.90;;;;;;4976805;28;20034;-77
2021/11/23 07:57:16;;;;;;;14.85;9.15;;;-0.90;99.90;;;;;;4995026;28;20062;-77
2021/11/23 07:59:42;;;;;;;14.75;9.05;;;-0.80;99.90;;;;;;5013067;28;20033;-77
2021/11/23 08:02:08;;;;;;;20.75;10.95;;;-0.80;99.90;;;;;;5008502;28;20088;-77
2021/11/23 08:04:33;;;;;;;13.88;9.45;;;-0.80;99.90;;;;;;4976607;28;20108;-77
2021/11/23 08:06:59;;;;;;;16.33;10.32;;;-0.70;99.90;;;;;;4999025;28;20034;-78
2021/11/23 08:09:25;;;;;;;16.52;10.55;;;-0.60;99.90;;;;;;5018301;28;20046;-77
2021/11/23 08:11:50;;;;;;;17.80;11.27;;;-0.60;99.90;;;;;;5000842;28;20030;-77
2021/11/23 08:14:16;;;;;;;16.98;10.93;;;-0.50;99.90;;;;;;4981373;28;20116;-79
2021/11/23 08:16:42;;;;;;;23.60;12.13;;;-0.40;99.90;;;;;;4979635;28;20445;-74
2021/11/23 08:19:07;;;;;;;20.17;12.30;;;0.60;99.90;;;;;;5012214;28;20037;-77
2021/11/23 08:21:33;;;;;;;20.25;12.40;;;-0.30;99.90;;;;;;5013713;28;20018;-77
2021/11/23 08:23:59;;;;;;;31.10;13.70;;;0.10;99.90;;;;;;4995674;28;20041;-77
2021/11/23 08:26:25;;;;;;;24.23;11.50;;;0.20;99.90;;;;;;4980412;28;20054;-75
2021/11/23 08:28:51;;;;;;;22.58;11.63;;;0.30;99.90;;;;;;5023617;28;20512;-79
2021/11/23 08:31:18;;;;;;;29.52;17.13;;;0.40;99.90;;;;;;5018397;28;20029;-77
2021/11/23 08:33:44;;;;;;;26.45;14.38;;;0.50;99.90;;;;;;5016729;28;20030;-77
2021/11/23 08:36:10;;;;;;;18.35;10.52;;;0.70;99.90;;;;;;4999508;28;20044;-78
2021/11/23 08:38:36;;;;;;;11.95;7.72;;;1.30;99.90;;;;;;5018133;28;20093;-77
2021/11/23 08:41:03;;;;;;;14.43;6.75;;;2.40;99.90;;;;;;5009786;28;20031;-77
2021/11/23 08:43:29;;;;;;;8.02;4.85;;;3.50;99.90;;;;;;4996422;28;20348;-77
2021/11/23 08:45:54;;;;;;;8.48;4.50;;;4.30;99.90;;;;;;5010222;28;20026;-77
2021/11/23 08:48:20;;;;;;;6.40;4.10;;;5.80;99.90;;;;;;5016623;28;20026;-77
2021/11/23 08:50:47;;;;;;;11.23;4.47;;;5.80;99.90;;;;;;4985342;28;20104;-77
2021/11/23 08:53:13;;;;;;;6.43;4.30;;;6.00;99.90;;;;;;5012920;28;20169;-77
2021/11/23 08:55:39;;;;;;;9.00;4.38;;;6.40;99.90;;;;;;5003611;28;20050;-78
2021/11/23 08:58:07;;;;;;;7.40;3.78;;;7.80;99.90;;;;;;5008149;28;20402;-78
2021/11/23 09:00:34;;;;;;;7.00;3.67;;;8.70;99.90;;;;;;5024644;28;20416;-78
2021/11/23 09:03:00;;;;;;;5.15;3.70;;;7.60;99.90;;;;;;5025571;28;20045;-78
2021/11/23 09:05:31;;;;;;;5.78;4.00;;;8.70;99.90;;;;;;5027878;28;20098;-78
2021/11/23 09:07:59;;;;;;;7.85;5.43;;;8.10;99.90;;;;;;5026680;28;20347;-78
2021/11/23 09:10:26;;;;;;;5.47;4.00;;;;;;;;;;5021894;28;20037;-77
2021/11/23 09:12:55;;;;;;;8.18;4.47;;;8.20;99.90;;;;;;5002973;28;20014;-77
2021/11/23 09:15:21;;;;;;;5.95;3.80;;;11.00;99.90;;;;;;5014833;28;20064;-77
2021/11/23 09:17:48;;;;;;;8.32;5.10;;;10.40;99.90;;;;;;5025381;28;20414;-79
2021/11/23 09:20:16;;;;;;;5.70;3.80;;;10.80;99.90;;;;;;5023923;28;20021;-79
2021/11/23 09:22:42;;;;;;;7.53;4.63;;;10.80;99.90;;;;;;4997491;28;20442;-79
2021/11/23 09:25:10;;;;;;;6.78;4.07;;;10.10;99.90;;;;;;5005423;28;20037;-77
2021/11/23 09:27:35;;;;;;;6.43;3.22;;;10.40;99.10;;;;;;5014168;28;20461;-79
2021/11/23 09:30:02;;;;;;;14.18;6.40;;;9.90;98.30;;;;;;5016456;28;20065;-76
2021/11/23 09:32:28;;;;;;;8.18;4.00;;;11.70;98.80;;;;;;4990466;28;20481;-77
2021/11/23 09:34:55;;;;;;;5.07;3.55;;;11.10;95.80;;;;;;5000806;28;20061;-77
2021/11/23 09:37:21;;;;;;;4.95;3.58;;;11.20;94.60;;;;;;5015336;28;20021;-76
2021/11/23 09:39:47;;;;;;;5.45;3.92;;;11.50;94.60;;;;;;5015346;28;20030;-77
2021/11/23 09:42:13;;;;;;;5.70;3.40;;;;;;;;;;5001496;28;20084;-77
2021/11/23 09:44:42;;;;;;;5.88;3.28;;;;;;;;;;4998441;28;20062;-77
2021/11/23 09:47:08;;;;;;;5.20;3.70;;;;;;;;;;5015674;28;20176;-75
2021/11/23 09:49:34;;;;;;;5.38;3.65;;;;;;;;;;5009114;28;20125;-76
2021/11/23 09:52:00;;;;;;;4.60;3.40;;;;;;;;;;4994819;28;20060;-76
2021/11/23 09:54:26;;;;;;;8.75;3.28;;;;;;;;;;4995326;28;20023;-78
2021/11/23 09:56:52;;;;;;;4.72;2.80;;;;;;;;;;4994694;28;20030;-77
2021/11/23 09:59:18;;;;;;;4.90;3.47;;;;;;;;;;5006815;28;20030;-77
2021/11/23 10:01:47;;;;;;;4.72;2.95;;;;;;;;;;5001583;28;20445;-76
2021/11/23 10:04:13;;;;;;;4.20;2.95;;;;;;;;;;4998045;28;20090;-78
2021/11/23 10:06:52;;;;;;;4.10;2.92;;;;;;;;;;4994704;28;20030;-77
2021/11/23 10:09:26;;;;;;;4.28;3.00;;;;;;;;;;4994467;28;20162;-78
2021/11/23 10:11:52;;;;;;;4.45;3.28;;;;;;;;;;5005671;28;20037;-78
2021/11/23 10:14:18;;;;;;;4.93;3.10;;;;;;;;;;4995600;28;20513;-78
2021/11/23 10:16:46;;;;;;;4.15;2.83;;;;;;;;;;4977895;28;20022;-78
2021/11/23 10:19:14;;;;;;;5.07;2.90;;;;;;;;;;4996129;28;20081;-78
2021/11/23 10:24:16;;;;;;;4.03;2.95;;;;;;;;;;5021398;28;20049;-80
2021/11/23 10:26:42;;;;;;;4.22;3.03;;;;;;;;;;5041959;28;20030;-80
2021/11/23 10:29:08;;;;;;;4.60;2.92;;;;;;;;;;5032655;28;20030;-79
2021/11/23 10:31:35;;;;;;;3.88;2.60;;;;;;;;;;5042522;28;20038;-80
2021/11/23 10:34:03;;;;;;;4.57;2.70;;;;;;;;;;5041933;28;20027;-80
2021/11/23 10:36:34;;;;;;;4.60;3.00;;;;;;;;;;5039385;28;20109;-79
2021/11/23 10:39:08;;;;;;;4.43;2.58;;;;;;;;;;5024155;28;20030;-79
2021/11/23 10:41:34;;;;;;;4.72;2.92;;;;;;;;;;5012650;28;20521;-78
2021/11/23 10:44:00;;;;;;;5.18;2.80;;;;;;;;;;5012254;28;20442;-79
2021/11/23 10:46:29;;;;;;;5.55;2.70;;;;;;;;;;5013921;28;20029;-79
2021/11/23 10:48:56;;;;;;;3.97;2.58;;;;;;;;;;5029695;28;20061;-79
2021/11/23 10:51:24;;;;;;;3.97;2.70;;;;;;;;;;5030179;28;20037;-78
2021/11/23 10:53:50;;;;;;;5.13;2.80;;;;;;;;;;5023984;28;20030;-78
2021/11/23 10:56:17;;;;;;;2.95;2.00;;;;;;;;;;5015028;28;20487;-79
2021/11/23 10:58:44;;;;;;;3.53;2.47;;;;;;;;;;4999418;28;20476;-78
2021/11/23 11:01:11;;;;;;;3.78;2.50;;;;;;;;;;5035558;28;20096;-78
2021/11/23 11:03:38;;;;;;;3.35;2.20;;;;;;;;;;5036708;28;20148;-79
2021/11/23 11:06:05;;;;;;;4.50;2.63;;;;;;;;;;5035246;28;20033;-76
2021/11/23 11:08:35;;;;;;;4.22;2.42;;;;;;;;;;5033396;28;20490;-77
2021/11/23 11:11:02;;;;;;;3.25;2.25;;;;;;;;;;5019210;28;20040;-77
2021/11/23 11:13:28;;;;;;;3.40;2.25;;;;;;;;;;5028309;28;20030;-78
2021/11/23 11:15:59;;;;;;;4.20;2.38;;;;;;;;;;5034426;28;20076;-77
2021/11/23 11:18:25;;;;;;;3.83;2.00;;;;;;;;;;5020756;28;20029;-77
2021/11/23 11:20:57;;;;;;;18.38;2.72;;;;;;;;;;5014643;28;20022;-77
2021/11/23 11:23:25;;;;;;;3.60;2.40;;;;;;;;;;5027748;28;20033;-77
2021/11/23 11:28:38;;;;;;;4.68;2.72;;;;;;;;;;5020434;28;20026;-77
2021/11/23 11:31:07;;;;;;;16.00;9.43;;;;;;;;;;5015810;28;20030;-77
2021/11/23 11:33:34;;;;;;;3.33;2.20;;;;;;;;;;5030046;28;20541;-78
2021/11/23 11:36:00;;;;;;;2.95;1.95;;;;;;;;;;5033960;28;20432;-77
2021/11/23 11:38:26;;;;;;;4.28;1.98;;;;;;;;;;5033238;28;20049;-77
2021/11/23 11:40:53;;;;;;;4.00;2.00;;;;;;;;;;5033081;28;20510;-77
2021/11/23 11:43:19;;;;;;;4.85;1.92;;;;;;;;;;5028516;28;20041;-76
2021/11/23 11:45:50;;;;;;;2.47;1.80;;;;;;;;;;5034074;28;20053;-78
2021/11/23 11:48:21;;;;;;;4.07;2.55;;;;;;;;;;5033684;28;20022;-78
2021/11/23 11:51:01;;;;;;;4.67;2.60;;;;;;;;;;5033426;28;20026;-77
2021/11/23 11:53:38;;;;;;;4.90;2.05;;;;;;;;;;5017994;28;20328;-76
2021/11/23 11:56:04;;;;;;;4.60;2.20;;;;;;;;;;5013824;28;20611;-77
2021/11/23 11:58:43;;;;;;;5.35;2.25;;;;;;;;;;5013444;28;20112;-78
2021/11/23 12:01:27;;;;;;;3.97;1.75;;;;;;;;;;5013734;28;20022;-76
2021/11/23 12:04:01;;;;;;;2.83;1.85;;;;;;;;;;5026994;28;20036;-76
2021/11/23 12:06:45;;;;;;;2.95;1.90;;;;;;;;;;5031985;28;20036;-77
2021/11/23 12:09:31;;;;;;;3.42;1.73;;;;;;;;;;5012906;28;20153;-76
2021/11/23 12:12:10;;;;;;;3.40;1.75;;;;;;;;;;5026725;28;20033;-76
2021/11/23 12:14:38;;;;;;;2.67;1.80;;;;;;;;;;5032223;28;20382;-76
2021/11/23 12:17:23;;;;;;;1.65;1.17;;;;;;;;;;5033129;28;20455;-77
2021/11/23 12:20:11;;;;;;;5.78;1.70;;;;;;;;;;5014935;28;20551;-76
2021/11/23 12:22:41;;;;;;;2.85;1.60;;;;;;;;;;5032612;28;20029;-76
2021/11/23 12:25:08;;;;;;;2.25;1.50;;;;;;;;;;5033714;28;20030;-76
2021/11/23 12:27:35;;;;;;;3.25;1.77;;;;;;;;;;5033207;28;20053;-76
2021/11/23 12:30:01;;;;;;;3.30;1.90;;;;;;;;;;5032953;28;20033;-77
2021/11/23 12:32:34;;;;;;;3.45;1.63;;;;;;;;;;5021982;28;20038;-77
2021/11/23 12:35:01;;;;;;;4.32;2.10;;;;;;;;;;5013432;28;20034;-76
2021/11/23 12:37:53;;;;;;;4.03;1.60;;;;;;;;;;5014617;28;20026;-76
2021/11/23 12:40:26;;;;;;;3.17;1.58;;;;;;;;;;5000184;28;20425;-77
2021/11/23 12:42:54;;;;;;;4.15;1.42;;;;;;;;;;5034952;28;20363;-76
2021/11/23 12:45:20;;;;;;;3.00;1.48;;;;;;;;;;5017349;28;20026;-76
2021/11/23 12:47:50;;;;;;;3.63;1.65;;;;;;;;;;5034061;28;20027;-76
2021/11/23 12:50:17;;;;;;;4.28;1.60;;;;;;;;;;5027666;28;20613;-77
2021/11/23 12:52:43;;;;;;;3.22;1.65;;;;;;;;;;5012315;28;20105;-76
2021/11/23 12:55:10;;;;;;;5.97;1.75;;;;;;;;;;5012793;28;20037;-77
2021/11/23 12:57:36;;;;;;;2.50;1.42;;;;;;;;;;5013802;28;20384;-76
2021/11/23 13:00:06;;;;;;;6.05;1.70;;;;;;;;;;5012888;28;20148;-77
2021/11/23 13:02:35;;;;;;;5.63;1.50;;;;;;;;;;5012457;28;20081;-76
2021/11/23 13:05:10;;;;;;;2.10;1.23;;;;;;;;;;5014755;28;20040;-76
2021/11/23 13:07:43;;;;;;;2.78;1.60;;;;;;;;;;5020250;28;20105;-76
2021/11/23 13:10:11;;;;;;;3.83;1.48;;;;;;;;;;5022658;28;20083;-76
2021/11/23 13:12:46;;;;;;;2.20;1.35;;;;;;;;;;5014224;28;20733;-76
2021/11/23 13:15:14;;;;;;;5.88;1.25;;;;;;;;;;5004893;28;20524;-76
2021/11/23 13:17:43;;;;;;;10.00;1.40;;;;;;;;;;5032497;28;20029;-76